createdAt,value
2023-01-13T00:01:29.097Z,0.90
2023-01-13T00:03:56.975Z,1.73
2023-01-13T00:06:29.176Z,1.85
2023-01-13T00:08:55.719Z,1.63
2023-01-13T00:11:27.850Z,1.23
2023-01-13T00:13:54.504Z,0.95
2023-01-13T00:16:21.119Z,1.33
2023-01-13T00:18:53.313Z,0.80
2023-01-13T00:21:22.047Z,2.58
2023-01-13T00:23:48.868Z,3.20
2023-01-13T00:26:20.458Z,1.10
2023-01-13T00:28:46.924Z,1.27
2023-01-13T00:31:17.145Z,0.50
2023-01-13T00:33:45.646Z,0.60
2023-01-13T00:36:15.091Z,1.20
2023-01-13T00:38:43.103Z,1.13
2023-01-13T00:41:14.352Z,0.65
2023-01-13T00:43:41.483Z,1.55
2023-01-13T00:46:09.950Z,1.88
2023-01-13T00:48:38.705Z,1.10
2023-01-13T00:51:14.801Z,4.10
2023-01-13T00:53:46.268Z,3.90
2023-01-13T00:56:16.639Z,2.03
2023-01-13T00:58:44.600Z,2.50
2023-01-13T01:01:23.331Z,1.40
2023-01-13T01:03:54.563Z,1.08
2023-01-13T01:06:26.433Z,1.17
2023-01-13T01:08:53.964Z,0.90
2023-01-13T01:11:23.641Z,2.42
2023-01-13T01:13:52.773Z,1.58
2023-01-13T01:16:23.097Z,0.85
2023-01-13T01:18:51.756Z,0.75
2023-01-13T01:21:21.451Z,0.65
2023-01-13T01:23:48.016Z,1.42
2023-01-13T01:26:18.912Z,0.73
2023-01-13T01:28:48.145Z,1.23
2023-01-13T01:31:20.427Z,1.83
2023-01-13T01:33:53.165Z,2.45
2023-01-13T01:36:21.467Z,0.77
2023-01-13T01:38:49.005Z,1.52
2023-01-13T01:41:22.014Z,0.95
2023-01-13T01:43:59.369Z,1.58
2023-01-13T01:46:39.419Z,1.10
2023-01-13T01:49:12.190Z,0.63
2023-01-13T01:52:10.231Z,1.50
2023-01-13T01:55:19.871Z,1.25
2023-01-13T01:57:51.980Z,1.00
2023-01-13T02:00:18.686Z,1.85
2023-01-13T02:02:49.660Z,1.95
2023-01-13T02:05:16.904Z,1.15
2023-01-13T02:07:46.475Z,2.70
2023-01-13T02:10:16.335Z,1.27
2023-01-13T02:12:44.852Z,1.63
2023-01-13T02:15:13.134Z,0.85
2023-01-13T02:17:52.933Z,2.47
2023-01-13T02:20:43.669Z,2.75
2023-01-13T02:23:49.548Z,3.17
2023-01-13T02:26:28.132Z,0.90
2023-01-13T02:29:36.311Z,2.15
2023-01-13T02:32:21.880Z,1.40
2023-01-13T02:35:05.234Z,0.77
2023-01-13T02:37:36.600Z,1.27
2023-01-13T02:40:09.717Z,1.10
2023-01-13T02:43:04.502Z,0.40
2023-01-13T02:45:40.069Z,1.48
2023-01-13T02:48:09.336Z,0.20
2023-01-13T02:50:41.477Z,0.50
2023-01-13T02:53:13.605Z,1.27
2023-01-13T02:55:49.460Z,1.02
2023-01-13T02:58:20.426Z,0.40
2023-01-13T03:00:49.299Z,0.45
2023-01-13T03:03:15.961Z,0.50
2023-01-13T03:05:44.605Z,0.43
2023-01-13T03:08:45.305Z,2.42
2023-01-13T03:11:14.256Z,0.93
2023-01-13T03:14:08.497Z,1.60
2023-01-13T03:16:45.914Z,2.22
2023-01-13T03:19:25.461Z,0.77
2023-01-13T03:22:12.625Z,1.42
2023-01-13T03:24:46.491Z,1.30
2023-01-13T03:27:24.364Z,1.63
2023-01-13T03:30:00.547Z,1.23
2023-01-13T03:32:35.505Z,3.60
2023-01-13T03:35:10.798Z,0.70
2023-01-13T03:37:45.665Z,1.70
2023-01-13T03:40:30.428Z,0.80
2023-01-13T03:43:21.851Z,2.20
2023-01-13T03:45:53.422Z,0.52
2023-01-13T03:48:22.238Z,0.80
2023-01-13T03:50:52.091Z,1.48
2023-01-13T03:53:25.369Z,2.25
2023-01-13T03:55:59.483Z,2.00
2023-01-13T03:58:33.444Z,1.70
2023-01-13T04:01:11.261Z,1.25
2023-01-13T04:03:49.835Z,3.47
2023-01-13T04:06:25.682Z,2.25
2023-01-13T04:09:09.059Z,0.88
2023-01-13T04:11:42.646Z,1.40
2023-01-13T04:14:11.876Z,0.60
2023-01-13T04:16:38.909Z,0.52
2023-01-13T04:19:07.737Z,0.95
2023-01-13T04:21:35.492Z,0.88
2023-01-13T04:24:02.229Z,1.20
2023-01-13T04:26:28.692Z,1.48
2023-01-13T04:28:57.416Z,0.82
2023-01-13T04:31:24.323Z,2.90
2023-01-13T04:33:50.831Z,0.98
2023-01-13T04:36:17.461Z,2.83
2023-01-13T04:38:43.997Z,0.85
2023-01-13T04:41:10.553Z,4.47
2023-01-13T04:43:39.317Z,2.65
2023-01-13T04:46:05.956Z,3.88
2023-01-13T04:48:32.459Z,4.68
2023-01-13T04:51:11.274Z,3.55
2023-01-13T04:53:37.768Z,0.93
2023-01-13T04:56:04.432Z,1.48
2023-01-13T04:58:32.705Z,2.47
2023-01-13T05:00:59.495Z,2.20
2023-01-13T05:03:26.827Z,3.58
2023-01-13T05:05:55.092Z,1.50
2023-01-13T05:08:21.629Z,2.05
2023-01-13T05:10:48.123Z,2.10
2023-01-13T05:13:36.996Z,3.15
2023-01-13T05:16:22.188Z,1.58
2023-01-13T05:18:54.495Z,1.48
2023-01-13T05:21:53.229Z,3.15
2023-01-13T05:24:50.052Z,2.67
2023-01-13T05:27:16.588Z,3.33
2023-01-13T05:29:46.964Z,1.73
2023-01-13T05:32:13.579Z,3.28
2023-01-13T05:34:40.088Z,6.15
2023-01-13T05:37:08.010Z,3.60
2023-01-13T05:39:55.382Z,1.70
2023-01-13T05:42:40.903Z,1.92
2023-01-13T05:45:08.383Z,3.05
2023-01-13T05:47:34.906Z,5.00
2023-01-13T05:50:01.419Z,1.33
2023-01-13T05:52:28.120Z,1.45
2023-01-13T05:54:54.591Z,1.48
2023-01-13T05:57:21.365Z,3.17
2023-01-13T05:59:49.798Z,2.10
2023-01-13T06:02:16.312Z,2.53
2023-01-13T06:04:42.894Z,2.17
2023-01-13T06:07:09.615Z,1.63
2023-01-13T06:09:36.130Z,2.05
2023-01-13T06:12:02.673Z,2.20
2023-01-13T06:14:51.176Z,2.80
2023-01-13T06:17:17.827Z,1.80
2023-01-13T06:19:46.367Z,5.80
2023-01-13T06:22:18.976Z,2.55
2023-01-13T06:24:48.914Z,3.80
2023-01-13T06:27:16.740Z,5.38
2023-01-13T06:29:45.205Z,4.22
2023-01-13T06:32:23.143Z,3.70
2023-01-13T06:34:55.755Z,6.25
2023-01-13T06:37:25.600Z,3.10
2023-01-13T06:39:59.918Z,2.08
2023-01-13T06:42:48.902Z,3.50
2023-01-13T06:45:17.385Z,3.67
2023-01-13T06:50:39.502Z,4.30
2023-01-13T06:53:05.970Z,4.22
2023-01-13T06:55:32.485Z,3.55
2023-01-13T06:58:00.795Z,3.50
2023-01-13T07:00:27.936Z,4.60
2023-01-13T07:03:07.110Z,2.92
2023-01-13T07:05:33.801Z,2.92
2023-01-13T07:08:00.652Z,2.20
2023-01-13T07:10:29.753Z,2.20
2023-01-13T07:13:15.059Z,3.08
2023-01-13T07:15:52.489Z,1.75
2023-01-13T07:18:18.981Z,1.60
2023-01-13T07:20:52.040Z,1.40
2023-01-13T07:23:18.714Z,2.50
2023-01-13T07:25:45.189Z,2.72
2023-01-13T07:28:13.937Z,4.80
2023-01-13T07:30:47.088Z,1.10
2023-01-13T07:33:13.633Z,1.13
2023-01-13T07:35:40.140Z,1.52
2023-01-13T07:38:08.480Z,1.70
2023-01-13T07:40:35.000Z,1.85
2023-01-13T07:43:22.301Z,3.47
2023-01-13T07:45:48.874Z,0.90
2023-01-13T07:48:15.508Z,0.65
2023-01-13T07:50:44.268Z,0.70
2023-01-13T07:53:10.777Z,1.40
2023-01-13T07:55:41.756Z,0.60
2023-01-13T07:58:14.133Z,0.50
2023-01-13T08:00:40.868Z,0.43
2023-01-13T08:03:07.443Z,0.30
2023-01-13T08:05:36.294Z,0.30
2023-01-13T08:08:02.804Z,0.57
2023-01-13T08:10:29.618Z,0.68
2023-01-13T08:13:16.489Z,0.80
2023-01-13T08:15:46.968Z,1.15
2023-01-13T08:18:14.017Z,0.40
2023-01-13T08:20:40.527Z,0.20
2023-01-13T08:23:07.710Z,0.40
2023-01-13T08:25:34.709Z,0.20
2023-01-13T08:28:03.420Z,1.92
2023-01-13T08:30:30.535Z,0.60
2023-01-13T08:32:57.144Z,0.57
2023-01-13T08:35:24.212Z,0.30
2023-01-13T08:37:51.035Z,0.38
2023-01-13T08:40:20.783Z,0.90
2023-01-13T08:42:49.180Z,0.55
2023-01-13T08:45:15.929Z,0.20
2023-01-13T08:47:42.393Z,0.30
2023-01-13T08:50:10.522Z,0.40
2023-01-13T08:52:40.506Z,0.50
2023-01-13T08:55:07.985Z,1.30
2023-01-13T08:57:36.333Z,0.70
2023-01-13T09:00:04.947Z,1.48
2023-01-13T09:02:31.572Z,0.80
2023-01-13T09:05:00.509Z,1.38
2023-01-13T09:07:26.971Z,0.65
2023-01-13T09:09:53.464Z,0.73
2023-01-13T09:12:38.725Z,0.57
2023-01-13T09:15:06.435Z,0.68
2023-01-13T09:17:33.190Z,0.60
2023-01-13T09:20:01.570Z,0.80
2023-01-13T09:22:30.483Z,0.10
2023-01-13T09:24:57.141Z,0.35
2023-01-13T09:27:24.251Z,0.93
2023-01-13T09:29:50.781Z,1.05
2023-01-13T09:32:17.379Z,0.30
2023-01-13T09:35:02.614Z,1.48
2023-01-13T09:37:31.523Z,0.50
2023-01-13T09:40:01.723Z,0.82
2023-01-13T09:43:03.844Z,1.17
2023-01-13T09:45:43.033Z,2.75
2023-01-13T09:48:18.953Z,1.10
2023-01-13T09:51:18.839Z,1.70
2023-01-13T09:53:59.539Z,1.20
2023-01-13T09:56:26.596Z,1.30
2023-01-13T09:58:53.218Z,0.90
2023-01-13T10:01:40.568Z,0.73
2023-01-13T10:04:15.464Z,2.15
2023-01-13T10:06:57.367Z,1.17
2023-01-13T10:09:38.881Z,0.35
2023-01-13T10:12:34.732Z,0.57
2023-01-13T10:15:01.330Z,1.37
2023-01-13T10:17:27.764Z,0.50
2023-01-13T10:20:12.289Z,1.88
2023-01-13T10:26:21.228Z,0.55
2023-01-13T10:28:57.895Z,0.95
2023-01-13T10:31:27.218Z,2.92
2023-01-13T10:34:03.788Z,1.88
2023-01-13T10:36:30.820Z,0.47
2023-01-13T10:39:16.885Z,0.38
2023-01-13T10:41:46.485Z,0.93
2023-01-13T10:44:19.071Z,0.30
2023-01-13T10:46:59.362Z,1.23
2023-01-13T10:49:32.713Z,0.30
2023-01-13T10:52:03.664Z,0.68
2023-01-13T10:54:33.073Z,0.22
2023-01-13T10:57:23.261Z,1.02
2023-01-13T10:59:53.211Z,1.70
2023-01-13T11:02:28.616Z,1.48
2023-01-13T11:04:55.328Z,0.70
2023-01-13T11:07:52.219Z,0.43
2023-01-13T11:10:27.468Z,0.63
2023-01-13T11:13:08.476Z,0.45
2023-01-13T11:15:50.644Z,0.90
2023-01-13T11:18:43.328Z,1.30
2023-01-13T11:21:22.845Z,0.73
2023-01-13T11:24:04.254Z,3.40
2023-01-13T11:26:43.998Z,0.50
2023-01-13T11:29:26.420Z,1.10
2023-01-13T11:32:03.446Z,1.23
2023-01-13T11:34:32.715Z,2.30
2023-01-13T11:37:01.420Z,2.13
2023-01-13T11:39:43.279Z,2.03
2023-01-13T11:42:32.248Z,2.67
2023-01-13T11:45:43.341Z,2.03
2023-01-13T11:48:16.051Z,1.80
2023-01-13T11:51:03.589Z,2.20
2023-01-13T11:53:40.232Z,0.75
2023-01-13T11:56:38.584Z,2.00
2023-01-13T11:59:16.269Z,3.40
2023-01-13T12:02:25.102Z,1.98
2023-01-13T12:05:05.585Z,2.33
2023-01-13T12:07:54.703Z,1.58
2023-01-13T12:10:38.965Z,2.72
2023-01-13T12:13:33.384Z,1.35
2023-01-13T12:16:25.452Z,2.47
2023-01-13T12:19:20.184Z,2.40
2023-01-13T12:22:08.920Z,2.55
2023-01-13T12:24:41.431Z,1.52
2023-01-13T12:27:18.556Z,1.60
2023-01-13T12:29:48.725Z,6.30
2023-01-13T12:32:21.037Z,2.85
2023-01-13T12:35:10.848Z,2.35
2023-01-13T12:37:51.028Z,2.13
2023-01-13T12:40:17.783Z,3.70
2023-01-13T12:43:34.267Z,1.35
2023-01-13T12:46:21.331Z,1.38
2023-01-13T12:48:57.226Z,5.60
2023-01-13T12:51:56.003Z,5.65
2023-01-13T12:54:39.211Z,2.20
2023-01-13T12:57:23.615Z,0.70
2023-01-13T13:00:04.291Z,1.35
2023-01-13T13:03:03.766Z,0.75
2023-01-13T13:05:39.628Z,3.72
2023-01-13T13:11:40.913Z,1.00
2023-01-13T13:14:15.163Z,3.50
2023-01-13T13:16:47.236Z,1.40
2023-01-13T13:19:22.709Z,3.53
2023-01-13T13:22:18.112Z,3.40
2023-01-13T13:24:52.427Z,1.08
2023-01-13T13:27:22.799Z,1.58
2023-01-13T13:30:04.189Z,2.05
2023-01-13T13:32:36.677Z,4.13
2023-01-13T13:35:35.167Z,2.90
2023-01-13T13:38:37.834Z,4.38
2023-01-13T13:41:39.724Z,2.75
2023-01-13T13:45:04.566Z,2.35
2023-01-13T13:47:40.108Z,1.85
2023-01-13T13:50:20.398Z,1.27
2023-01-13T13:52:55.836Z,3.00
2023-01-13T13:55:27.882Z,2.67
2023-01-13T13:57:57.713Z,1.92
2023-01-13T14:00:34.259Z,2.90
2023-01-13T14:03:21.132Z,0.75
2023-01-13T14:06:03.488Z,2.83
2023-01-13T14:08:37.531Z,0.55
2023-01-13T14:11:25.801Z,1.63
2023-01-13T14:14:07.329Z,2.00
2023-01-13T14:16:37.761Z,1.65
2023-01-13T14:19:04.295Z,1.13
2023-01-13T14:21:33.080Z,1.45
2023-01-13T14:24:05.597Z,2.30
2023-01-13T14:26:32.431Z,2.50
2023-01-13T14:29:01.610Z,1.95
2023-01-13T14:31:29.533Z,1.08
2023-01-13T14:33:59.152Z,2.72
2023-01-13T14:36:37.406Z,2.47
2023-01-13T14:39:03.810Z,2.35
2023-01-13T14:41:42.331Z,2.60
2023-01-13T14:44:26.931Z,2.25
2023-01-13T14:46:58.228Z,3.53
2023-01-13T14:49:30.987Z,6.95
2023-01-13T14:52:07.885Z,2.15
2023-01-13T14:54:54.311Z,1.83
2023-01-13T14:57:34.504Z,1.77
2023-01-13T15:00:16.183Z,2.08
2023-01-13T15:02:50.743Z,1.63
2023-01-13T15:05:17.261Z,2.83
2023-01-13T15:08:21.326Z,2.58
2023-01-13T15:10:59.820Z,3.15
2023-01-13T15:13:29.297Z,1.85
2023-01-13T15:15:57.571Z,3.75
2023-01-13T15:18:24.372Z,3.72
2023-01-13T15:20:55.206Z,2.95
2023-01-13T15:23:21.922Z,1.42
2023-01-13T15:25:49.353Z,1.48
2023-01-13T15:28:28.332Z,1.48
2023-01-13T15:31:00.491Z,1.60
2023-01-13T15:33:27.568Z,2.60
2023-01-13T15:35:54.889Z,5.35
2023-01-13T15:38:23.482Z,6.25
2023-01-13T15:40:51.788Z,1.15
2023-01-13T15:43:38.620Z,1.52
2023-01-13T15:46:31.437Z,2.03
2023-01-13T15:49:00.683Z,1.73
2023-01-13T15:51:27.175Z,0.77
2023-01-13T15:53:53.779Z,3.33
2023-01-13T15:56:25.517Z,2.53
2023-01-13T15:58:52.679Z,3.40
2023-01-13T16:01:19.358Z,3.53
2023-01-13T16:03:46.154Z,1.77
2023-01-13T16:06:18.125Z,1.52
2023-01-13T16:08:44.739Z,3.38
2023-01-13T16:11:14.386Z,1.65
2023-01-13T16:13:40.895Z,2.85
2023-01-13T16:16:24.770Z,0.90
2023-01-13T16:18:52.665Z,0.77
2023-01-13T16:21:20.926Z,2.13
2023-01-13T16:23:51.260Z,2.97
2023-01-13T16:26:23.569Z,2.00
2023-01-13T16:28:57.653Z,2.08
2023-01-13T16:31:27.385Z,4.93
2023-01-13T16:33:54.375Z,6.40
2023-01-13T16:36:23.832Z,5.85
2023-01-13T16:38:52.476Z,4.32
2023-01-13T16:41:21.211Z,6.38
2023-01-13T16:43:48.813Z,2.92
2023-01-13T16:46:22.744Z,4.35
2023-01-13T16:48:50.500Z,3.60
2023-01-13T16:51:17.007Z,3.55
2023-01-13T16:53:43.617Z,3.50
2023-01-13T16:56:19.565Z,3.15
2023-01-13T16:58:50.679Z,5.47
2023-01-13T17:01:30.778Z,2.63
2023-01-13T17:04:01.787Z,2.40
2023-01-13T17:06:42.678Z,2.38
2023-01-13T17:09:16.329Z,3.40
2023-01-13T17:11:42.929Z,1.83
2023-01-13T17:14:18.486Z,3.03
2023-01-13T17:16:46.333Z,7.43
2023-01-13T17:19:13.826Z,6.55
2023-01-13T17:21:42.422Z,6.25
2023-01-13T17:24:14.255Z,3.58
2023-01-13T17:26:49.100Z,4.32
2023-01-13T17:29:25.180Z,4.03
2023-01-13T17:31:58.441Z,2.78
2023-01-13T17:34:29.152Z,5.57
2023-01-13T17:36:55.686Z,3.88
2023-01-13T17:39:25.404Z,3.05
2023-01-13T17:41:58.053Z,3.95
2023-01-13T17:44:31.134Z,4.32
2023-01-13T17:46:57.680Z,3.08
2023-01-13T17:49:24.188Z,4.10
2023-01-13T17:51:53.236Z,6.30
2023-01-13T17:54:20.200Z,5.18
2023-01-13T17:56:50.434Z,5.13
2023-01-13T17:59:19.082Z,3.30
2023-01-13T18:01:46.417Z,4.70
2023-01-13T18:04:18.291Z,3.63
2023-01-13T18:06:45.493Z,8.48
2023-01-13T18:09:12.284Z,3.72
2023-01-13T18:11:38.896Z,4.22
2023-01-13T18:14:07.248Z,3.05
2023-01-13T18:16:34.080Z,5.88
2023-01-13T18:19:21.527Z,5.15
2023-01-13T18:22:06.900Z,3.42
2023-01-13T18:24:55.134Z,6.82
2023-01-13T18:27:28.702Z,1.77
2023-01-13T18:30:00.461Z,4.28
2023-01-13T18:32:32.808Z,4.25
2023-01-13T18:35:07.347Z,7.50
2023-01-13T18:37:41.951Z,7.57
2023-01-13T18:40:10.803Z,3.60
2023-01-13T18:42:54.519Z,5.93
2023-01-13T18:45:25.503Z,5.03
2023-01-13T18:47:56.721Z,7.03
2023-01-13T18:50:23.637Z,5.25
2023-01-13T18:52:52.256Z,8.23
2023-01-13T18:55:19.130Z,9.35
2023-01-13T18:57:46.055Z,4.28
2023-01-13T19:00:21.397Z,2.60
2023-01-13T19:02:50.656Z,5.68
2023-01-13T19:05:17.567Z,16.95
2023-01-13T19:07:52.184Z,7.15
2023-01-13T19:10:19.051Z,5.57
2023-01-13T19:12:47.834Z,4.55
2023-01-13T19:15:14.592Z,4.82
2023-01-13T19:17:41.147Z,11.13
2023-01-13T19:20:11.323Z,6.68
2023-01-13T19:22:39.640Z,4.15
2023-01-13T19:25:06.441Z,4.05
2023-01-13T19:27:32.977Z,8.48
2023-01-13T19:30:03.185Z,8.63
2023-01-13T19:32:32.575Z,6.45
2023-01-13T19:35:01.870Z,8.63
2023-01-13T19:37:30.427Z,7.03
2023-01-13T19:40:00.485Z,7.85
2023-01-13T19:42:46.508Z,2.80
2023-01-13T19:45:26.692Z,5.93
2023-01-13T19:47:54.294Z,4.15
2023-01-13T19:50:21.149Z,4.95
2023-01-13T19:52:47.647Z,4.50
2023-01-13T19:55:14.453Z,3.90
2023-01-13T19:57:41.905Z,6.47
2023-01-13T20:00:09.658Z,3.78
2023-01-13T20:02:37.080Z,7.75
2023-01-13T20:05:06.581Z,6.55
2023-01-13T20:07:33.558Z,4.22
2023-01-13T20:10:03.342Z,7.35
2023-01-13T20:12:32.116Z,8.73
2023-01-13T20:14:58.581Z,5.75
2023-01-13T20:17:28.005Z,6.90
2023-01-13T20:19:55.384Z,6.80
2023-01-13T20:22:22.079Z,5.47
2023-01-13T20:24:53.860Z,5.70
2023-01-13T20:27:24.013Z,7.80
2023-01-13T20:29:51.260Z,9.95
2023-01-13T20:32:17.941Z,4.20
2023-01-13T20:34:44.455Z,7.53
2023-01-13T20:37:11.068Z,7.82
2023-01-13T20:39:42.307Z,8.25
2023-01-13T20:42:28.711Z,5.80
2023-01-13T20:44:58.451Z,7.05
2023-01-13T20:47:26.012Z,9.63
2023-01-13T20:49:52.591Z,7.78
2023-01-13T20:52:21.360Z,4.72
2023-01-13T20:54:47.960Z,8.65
2023-01-13T20:57:14.541Z,6.88
2023-01-13T20:59:41.229Z,13.00
2023-01-13T21:02:13.187Z,9.18
2023-01-13T21:04:40.452Z,8.65
2023-01-13T21:07:07.691Z,9.65
2023-01-13T21:09:34.173Z,6.90
2023-01-13T21:12:19.416Z,6.45
2023-01-13T21:15:08.086Z,9.77
2023-01-13T21:17:53.261Z,5.72
2023-01-13T21:20:23.684Z,4.30
2023-01-13T21:22:50.258Z,5.90
2023-01-13T21:25:19.803Z,5.38
2023-01-13T21:27:46.660Z,6.25
2023-01-13T21:30:17.033Z,5.28
2023-01-13T21:32:45.041Z,6.32
2023-01-13T21:35:12.619Z,7.15
2023-01-13T21:37:40.646Z,5.03
2023-01-13T21:40:15.541Z,4.88
2023-01-13T21:43:01.039Z,7.30
2023-01-13T21:45:48.286Z,4.78
2023-01-13T21:48:14.825Z,4.50
2023-01-13T21:50:42.251Z,4.28
2023-01-13T21:53:11.362Z,4.90
2023-01-13T21:55:40.286Z,10.65
2023-01-13T21:58:12.907Z,3.08
2023-01-13T22:00:43.936Z,4.20
2023-01-13T22:03:12.676Z,5.53
2023-01-13T22:05:41.080Z,3.10
2023-01-13T22:08:08.109Z,3.67
2023-01-13T22:10:35.093Z,4.72
2023-01-13T22:13:24.340Z,5.68
2023-01-13T22:15:50.865Z,5.53
2023-01-13T22:18:18.330Z,1.92
2023-01-13T22:20:47.171Z,3.75
2023-01-13T22:23:13.952Z,4.18
2023-01-13T22:25:40.634Z,3.70
2023-01-13T22:28:13.388Z,2.90
2023-01-13T22:30:40.377Z,5.32
2023-01-13T22:33:06.856Z,4.60
2023-01-13T22:35:35.097Z,10.45
2023-01-13T22:38:01.543Z,4.18
2023-01-13T22:40:31.418Z,4.63
2023-01-13T22:42:59.650Z,10.10
2023-01-13T22:45:26.171Z,4.72
2023-01-13T22:47:52.662Z,7.72
2023-01-13T22:50:21.167Z,4.25
2023-01-13T22:52:52.534Z,4.20
2023-01-13T22:55:19.058Z,6.20
2023-01-13T22:57:48.010Z,7.07
2023-01-13T23:00:19.156Z,7.05
2023-01-13T23:02:45.831Z,4.22
2023-01-13T23:05:15.506Z,4.68
2023-01-13T23:07:42.000Z,3.90
2023-01-13T23:10:09.046Z,6.75
2023-01-13T23:12:42.120Z,7.70
2023-01-13T23:15:08.962Z,9.82
2023-01-13T23:17:35.534Z,3.53
2023-01-13T23:20:04.354Z,4.03
2023-01-13T23:22:31.071Z,4.13
2023-01-13T23:24:57.550Z,7.97
2023-01-13T23:27:25.791Z,9.07
2023-01-13T23:29:52.273Z,3.60
2023-01-13T23:32:18.815Z,8.13
2023-01-13T23:34:49.804Z,5.72
2023-01-13T23:37:16.320Z,5.25
2023-01-13T23:39:42.799Z,6.10
2023-01-13T23:42:11.290Z,4.88
2023-01-13T23:44:37.799Z,7.47
2023-01-13T23:47:04.366Z,3.80
2023-01-13T23:49:31.043Z,6.00
2023-01-13T23:51:57.507Z,6.25
2023-01-13T23:54:24.028Z,7.35
2023-01-13T23:56:54.229Z,9.63
2023-01-13T23:59:21.250Z,6.65
